sensor_id;sensor_type;location;lat;lon;timestamp;P1;durP1;ratioP1;P2;durP2;ratioP2
43710;SDS011;29309;42.682;23.372;2022-10-15T00:00:12;7.93;;;3.40;;
43710;SDS011;29309;42.682;23.372;2022-10-15T00:02:38;5.55;;;3.42;;
43710;SDS011;29309;42.682;23.372;2022-10-15T00:05:03;11.52;;;3.28;;
43710;SDS011;29309;42.682;23.372;2022-10-15T00:07:29;4.20;;;2.90;;
43710;SDS011;29309;42.682;23.372;2022-10-15T00:09:54;6.10;;;3.20;;
43710;SDS011;29309;42.682;23.372;2022-10-15T00:12:20;8.07;;;3.63;;
43710;SDS011;29309;42.682;23.372;2022-10-15T00:14:45;6.03;;;3.03;;
43710;SDS011;29309;42.682;23.372;2022-10-15T00:17:11;7.28;;;3.58;;
43710;SDS011;29309;42.682;23.372;2022-10-15T00:19:36;5.35;;;3.83;;
43710;SDS011;29309;42.682;23.372;2022-10-15T00:22:01;8.98;;;4.80;;
43710;SDS011;29309;42.682;23.372;2022-10-15T00:24:27;8.40;;;3.65;;
43710;SDS011;29309;42.682;23.372;2022-10-15T00:26:52;6.30;;;3.30;;
43710;SDS011;29309;42.682;23.372;2022-10-15T00:29:18;6.50;;;3.55;;
43710;SDS011;29309;42.682;23.372;2022-10-15T00:31:43;5.30;;;3.33;;
43710;SDS011;29309;42.682;23.372;2022-10-15T00:34:09;4.97;;;3.10;;
43710;SDS011;29309;42.682;23.372;2022-10-15T00:36:35;7.22;;;3.40;;
43710;SDS011;29309;42.682;23.372;2022-10-15T00:39:01;8.20;;;3.70;;
43710;SDS011;29309;42.682;23.372;2022-10-15T00:41:31;5.75;;;3.30;;
43710;SDS011;29309;42.682;23.372;2022-10-15T00:43:59;7.22;;;3.58;;
43710;SDS011;29309;42.682;23.372;2022-10-15T00:51:49;6.35;;;3.10;;
43710;SDS011;29309;42.682;23.372;2022-10-15T00:54:18;7.70;;;3.08;;
43710;SDS011;29309;42.682;23.372;2022-10-15T00:56:45;5.30;;;3.10;;
43710;SDS011;29309;42.682;23.372;2022-10-15T00:59:13;4.25;;;2.67;;
43710;SDS011;29309;42.682;23.372;2022-10-15T01:01:42;5.35;;;3.30;;
43710;SDS011;29309;42.682;23.372;2022-10-15T01:04:08;5.45;;;3.17;;
43710;SDS011;29309;42.682;23.372;2022-10-15T01:06:35;4.00;;;2.95;;
43710;SDS011;29309;42.682;23.372;2022-10-15T01:09:02;5.28;;;3.20;;
43710;SDS011;29309;42.682;23.372;2022-10-15T01:17:20;5.43;;;2.95;;
43710;SDS011;29309;42.682;23.372;2022-10-15T01:27:50;6.88;;;3.05;;
43710;SDS011;29309;42.682;23.372;2022-10-15T01:30:41;6.00;;;3.03;;
43710;SDS011;29309;42.682;23.372;2022-10-15T01:33:30;8.63;;;2.95;;
43710;SDS011;29309;42.682;23.372;2022-10-15T01:38:54;10.43;;;3.30;;
43710;SDS011;29309;42.682;23.372;2022-10-15T01:46:41;5.65;;;3.10;;
43710;SDS011;29309;42.682;23.372;2022-10-15T01:51:59;6.57;;;3.05;;
43710;SDS011;29309;42.682;23.372;2022-10-15T01:54:30;4.47;;;3.03;;
43710;SDS011;29309;42.682;23.372;2022-10-15T01:56:56;5.28;;;3.30;;
43710;SDS011;29309;42.682;23.372;2022-10-15T01:59:27;7.05;;;2.97;;
43710;SDS011;29309;42.682;23.372;2022-10-15T02:01:55;6.70;;;3.13;;
43710;SDS011;29309;42.682;23.372;2022-10-15T02:04:26;5.88;;;2.72;;
43710;SDS011;29309;42.682;23.372;2022-10-15T02:07:04;5.85;;;3.25;;
43710;SDS011;29309;42.682;23.372;2022-10-15T02:17:44;6.23;;;2.70;;
43710;SDS011;29309;42.682;23.372;2022-10-15T02:20:19;5.72;;;3.08;;
43710;SDS011;29309;42.682;23.372;2022-10-15T02:22:58;6.93;;;3.72;;
43710;SDS011;29309;42.682;23.372;2022-10-15T02:25:27;8.65;;;3.20;;
43710;SDS011;29309;42.682;23.372;2022-10-15T02:27:53;5.20;;;2.92;;
43710;SDS011;29309;42.682;23.372;2022-10-15T02:30:21;5.60;;;3.15;;
43710;SDS011;29309;42.682;23.372;2022-10-15T02:32:50;8.35;;;3.40;;
43710;SDS011;29309;42.682;23.372;2022-10-15T02:35:20;4.30;;;2.92;;
43710;SDS011;29309;42.682;23.372;2022-10-15T02:37:48;5.13;;;3.47;;
43710;SDS011;29309;42.682;23.372;2022-10-15T02:40:17;4.85;;;3.13;;
43710;SDS011;29309;42.682;23.372;2022-10-15T02:42:47;6.82;;;3.13;;
43710;SDS011;29309;42.682;23.372;2022-10-15T02:45:13;6.53;;;3.88;;
43710;SDS011;29309;42.682;23.372;2022-10-15T02:47:39;5.00;;;3.20;;
43710;SDS011;29309;42.682;23.372;2022-10-15T02:50:04;5.40;;;3.00;;
43710;SDS011;29309;42.682;23.372;2022-10-15T02:52:30;7.70;;;3.30;;
43710;SDS011;29309;42.682;23.372;2022-10-15T02:54:55;4.07;;;3.47;;
43710;SDS011;29309;42.682;23.372;2022-10-15T02:57:21;4.15;;;3.17;;
43710;SDS011;29309;42.682;23.372;2022-10-15T02:59:46;4.88;;;3.20;;
43710;SDS011;29309;42.682;23.372;2022-10-15T03:02:12;5.22;;;3.67;;
43710;SDS011;29309;42.682;23.372;2022-10-15T03:04:37;5.65;;;3.65;;
43710;SDS011;29309;42.682;23.372;2022-10-15T03:07:03;6.40;;;3.55;;
43710;SDS011;29309;42.682;23.372;2022-10-15T03:09:28;4.63;;;3.15;;
43710;SDS011;29309;42.682;23.372;2022-10-15T03:11:54;4.45;;;3.20;;
43710;SDS011;29309;42.682;23.372;2022-10-15T03:14:19;6.15;;;3.72;;
43710;SDS011;29309;42.682;23.372;2022-10-15T03:16:45;4.85;;;3.22;;
43710;SDS011;29309;42.682;23.372;2022-10-15T03:19:10;5.18;;;3.53;;
43710;SDS011;29309;42.682;23.372;2022-10-15T03:21:36;5.28;;;3.85;;
43710;SDS011;29309;42.682;23.372;2022-10-15T03:24:01;8.55;;;3.53;;
43710;SDS011;29309;42.682;23.372;2022-10-15T03:26:27;5.25;;;3.40;;
43710;SDS011;29309;42.682;23.372;2022-10-15T03:28:52;3.88;;;3.08;;
43710;SDS011;29309;42.682;23.372;2022-10-15T03:31:18;5.50;;;3.40;;
43710;SDS011;29309;42.682;23.372;2022-10-15T03:33:43;5.60;;;3.60;;
43710;SDS011;29309;42.682;23.372;2022-10-15T03:36:09;7.47;;;3.35;;
43710;SDS011;29309;42.682;23.372;2022-10-15T03:38:34;9.32;;;3.75;;
43710;SDS011;29309;42.682;23.372;2022-10-15T03:41:00;4.68;;;3.50;;
43710;SDS011;29309;42.682;23.372;2022-10-15T03:43:25;5.28;;;3.42;;
43710;SDS011;29309;42.682;23.372;2022-10-15T03:45:51;5.85;;;3.50;;
43710;SDS011;29309;42.682;23.372;2022-10-15T03:48:17;5.40;;;3.63;;
43710;SDS011;29309;42.682;23.372;2022-10-15T03:50:44;12.02;;;3.92;;
43710;SDS011;29309;42.682;23.372;2022-10-15T03:53:10;5.18;;;3.55;;
43710;SDS011;29309;42.682;23.372;2022-10-15T03:55:36;7.47;;;4.10;;
43710;SDS011;29309;42.682;23.372;2022-10-15T03:58:02;10.65;;;3.90;;
43710;SDS011;29309;42.682;23.372;2022-10-15T04:00:27;5.75;;;3.95;;
43710;SDS011;29309;42.682;23.372;2022-10-15T04:02:53;4.72;;;3.58;;
43710;SDS011;29309;42.682;23.372;2022-10-15T04:05:19;8.85;;;4.18;;
43710;SDS011;29309;42.682;23.372;2022-10-15T04:07:44;7.15;;;4.07;;
43710;SDS011;29309;42.682;23.372;2022-10-15T04:10:10;7.53;;;4.25;;
43710;SDS011;29309;42.682;23.372;2022-10-15T04:12:35;9.35;;;4.32;;
43710;SDS011;29309;42.682;23.372;2022-10-15T04:15:01;8.57;;;4.10;;
43710;SDS011;29309;42.682;23.372;2022-10-15T04:17:27;8.05;;;4.10;;
43710;SDS011;29309;42.682;23.372;2022-10-15T04:19:52;8.98;;;3.85;;
43710;SDS011;29309;42.682;23.372;2022-10-15T04:22:17;9.27;;;3.97;;
43710;SDS011;29309;42.682;23.372;2022-10-15T04:24:43;6.20;;;3.83;;
43710;SDS011;29309;42.682;23.372;2022-10-15T04:27:10;8.38;;;4.40;;
43710;SDS011;29309;42.682;23.372;2022-10-15T04:29:36;7.13;;;4.05;;
43710;SDS011;29309;42.682;23.372;2022-10-15T04:32:02;21.13;;;5.25;;
43710;SDS011;29309;42.682;23.372;2022-10-15T04:34:27;9.80;;;4.50;;
43710;SDS011;29309;42.682;23.372;2022-10-15T04:36:53;11.18;;;4.75;;
43710;SDS011;29309;42.682;23.372;2022-10-15T04:39:18;8.27;;;5.20;;
43710;SDS011;29309;42.682;23.372;2022-10-15T04:41:50;7.07;;;4.78;;
43710;SDS011;29309;42.682;23.372;2022-10-15T04:44:15;7.75;;;4.65;;
43710;SDS011;29309;42.682;23.372;2022-10-15T04:46:41;9.20;;;4.70;;
43710;SDS011;29309;42.682;23.372;2022-10-15T04:49:06;9.02;;;4.50;;
43710;SDS011;29309;42.682;23.372;2022-10-15T04:51:31;10.27;;;4.93;;
43710;SDS011;29309;42.682;23.372;2022-10-15T04:53:57;10.98;;;4.97;;
43710;SDS011;29309;42.682;23.372;2022-10-15T04:56:22;8.30;;;4.95;;
43710;SDS011;29309;42.682;23.372;2022-10-15T04:58:49;9.98;;;5.15;;
43710;SDS011;29309;42.682;23.372;2022-10-15T05:01:16;10.45;;;4.43;;
43710;SDS011;29309;42.682;23.372;2022-10-15T05:03:44;8.85;;;4.70;;
43710;SDS011;29309;42.682;23.372;2022-10-15T05:06:11;12.38;;;5.50;;
43710;SDS011;29309;42.682;23.372;2022-10-15T05:08:39;16.17;;;6.05;;
43710;SDS011;29309;42.682;23.372;2022-10-15T05:11:27;13.75;;;6.40;;
43710;SDS011;29309;42.682;23.372;2022-10-15T05:13:53;12.10;;;6.35;;
43710;SDS011;29309;42.682;23.372;2022-10-15T05:16:21;13.40;;;7.03;;
43710;SDS011;29309;42.682;23.372;2022-10-15T05:18:49;10.32;;;5.88;;
43710;SDS011;29309;42.682;23.372;2022-10-15T05:21:16;7.78;;;5.35;;
43710;SDS011;29309;42.682;23.372;2022-10-15T05:23:42;16.05;;;6.10;;
43710;SDS011;29309;42.682;23.372;2022-10-15T05:26:13;10.80;;;7.38;;
43710;SDS011;29309;42.682;23.372;2022-10-15T05:28:40;18.85;;;8.60;;
43710;SDS011;29309;42.682;23.372;2022-10-15T05:31:06;7.97;;;6.07;;
43710;SDS011;29309;42.682;23.372;2022-10-15T05:33:33;10.05;;;6.15;;
43710;SDS011;29309;42.682;23.372;2022-10-15T05:36:18;10.95;;;5.93;;
43710;SDS011;29309;42.682;23.372;2022-10-15T05:38:46;13.30;;;6.20;;
43710;SDS011;29309;42.682;23.372;2022-10-15T05:41:13;8.18;;;5.07;;
43710;SDS011;29309;42.682;23.372;2022-10-15T05:43:39;10.90;;;5.20;;
43710;SDS011;29309;42.682;23.372;2022-10-15T05:46:04;8.75;;;5.63;;
43710;SDS011;29309;42.682;23.372;2022-10-15T05:48:30;11.73;;;6.57;;
43710;SDS011;29309;42.682;23.372;2022-10-15T05:51:02;14.93;;;7.28;;
43710;SDS011;29309;42.682;23.372;2022-10-15T05:53:29;16.17;;;6.57;;
43710;SDS011;29309;42.682;23.372;2022-10-15T05:55:55;13.27;;;6.07;;
43710;SDS011;29309;42.682;23.372;2022-10-15T05:58:23;15.93;;;5.80;;
43710;SDS011;29309;42.682;23.372;2022-10-15T06:00:55;11.38;;;5.95;;
43710;SDS011;29309;42.682;23.372;2022-10-15T06:03:22;13.50;;;5.90;;
43710;SDS011;29309;42.682;23.372;2022-10-15T06:05:49;10.15;;;5.00;;
43710;SDS011;29309;42.682;23.372;2022-10-15T06:08:15;7.93;;;4.65;;
43710;SDS011;29309;42.682;23.372;2022-10-15T06:10:41;9.93;;;5.07;;
43710;SDS011;29309;42.682;23.372;2022-10-15T06:13:06;12.73;;;5.40;;
43710;SDS011;29309;42.682;23.372;2022-10-15T06:15:32;6.57;;;5.43;;
43710;SDS011;29309;42.682;23.372;2022-10-15T06:17:58;10.38;;;5.15;;
43710;SDS011;29309;42.682;23.372;2022-10-15T06:20:24;8.60;;;4.90;;
43710;SDS011;29309;42.682;23.372;2022-10-15T06:22:50;9.77;;;4.15;;
43710;SDS011;29309;42.682;23.372;2022-10-15T06:25:15;8.27;;;4.35;;
43710;SDS011;29309;42.682;23.372;2022-10-15T06:27:41;5.43;;;3.58;;
43710;SDS011;29309;42.682;23.372;2022-10-15T06:30:06;7.82;;;4.20;;
43710;SDS011;29309;42.682;23.372;2022-10-15T06:32:33;8.07;;;4.28;;
43710;SDS011;29309;42.682;23.372;2022-10-15T06:34:58;10.27;;;4.60;;
43710;SDS011;29309;42.682;23.372;2022-10-15T06:37:24;6.43;;;4.03;;
43710;SDS011;29309;42.682;23.372;2022-10-15T06:39:49;9.23;;;5.78;;
43710;SDS011;29309;42.682;23.372;2022-10-15T06:42:15;7.63;;;4.22;;
43710;SDS011;29309;42.682;23.372;2022-10-15T06:44:40;7.55;;;5.30;;
43710;SDS011;29309;42.682;23.372;2022-10-15T06:47:06;6.18;;;4.85;;
43710;SDS011;29309;42.682;23.372;2022-10-15T06:49:31;11.32;;;4.95;;
43710;SDS011;29309;42.682;23.372;2022-10-15T06:51:57;8.30;;;4.63;;
43710;SDS011;29309;42.682;23.372;2022-10-15T06:54:23;7.93;;;4.95;;
43710;SDS011;29309;42.682;23.372;2022-10-15T06:56:49;8.10;;;5.05;;
43710;SDS011;29309;42.682;23.372;2022-10-15T06:59:15;11.48;;;5.80;;
43710;SDS011;29309;42.682;23.372;2022-10-15T07:01:40;15.98;;;6.60;;
43710;SDS011;29309;42.682;23.372;2022-10-15T07:04:06;7.85;;;5.57;;
43710;SDS011;29309;42.682;23.372;2022-10-15T07:06:33;12.27;;;5.43;;
43710;SDS011;29309;42.682;23.372;2022-10-15T07:09:01;7.90;;;4.30;;
43710;SDS011;29309;42.682;23.372;2022-10-15T07:11:27;11.63;;;5.03;;
43710;SDS011;29309;42.682;23.372;2022-10-15T07:13:53;11.38;;;4.28;;
43710;SDS011;29309;42.682;23.372;2022-10-15T07:16:18;9.07;;;4.43;;
43710;SDS011;29309;42.682;23.372;2022-10-15T07:18:46;7.20;;;3.90;;
43710;SDS011;29309;42.682;23.372;2022-10-15T07:21:12;11.25;;;4.10;;
43710;SDS011;29309;42.682;23.372;2022-10-15T07:23:37;10.88;;;3.92;;
43710;SDS011;29309;42.682;23.372;2022-10-15T07:26:03;7.05;;;4.07;;
43710;SDS011;29309;42.682;23.372;2022-10-15T07:28:28;7.82;;;4.40;;
43710;SDS011;29309;42.682;23.372;2022-10-15T07:30:54;8.27;;;4.32;;
43710;SDS011;29309;42.682;23.372;2022-10-15T07:33:24;9.95;;;3.50;;
43710;SDS011;29309;42.682;23.372;2022-10-15T07:35:49;8.23;;;3.30;;
43710;SDS011;29309;42.682;23.372;2022-10-15T07:38:15;8.20;;;4.20;;
43710;SDS011;29309;42.682;23.372;2022-10-15T07:40:41;8.40;;;3.58;;
43710;SDS011;29309;42.682;23.372;2022-10-15T07:43:07;9.05;;;3.50;;
43710;SDS011;29309;42.682;23.372;2022-10-15T07:45:33;6.93;;;4.50;;
43710;SDS011;29309;42.682;23.372;2022-10-15T07:48:00;8.48;;;5.13;;
43710;SDS011;29309;42.682;23.372;2022-10-15T07:50:25;9.45;;;6.20;;
43710;SDS011;29309;42.682;23.372;2022-10-15T07:52:51;6.75;;;4.63;;
43710;SDS011;29309;42.682;23.372;2022-10-15T07:55:16;4.32;;;3.08;;
43710;SDS011;29309;42.682;23.372;2022-10-15T07:57:42;5.47;;;3.42;;
43710;SDS011;29309;42.682;23.372;2022-10-15T08:00:07;7.03;;;3.38;;
43710;SDS011;29309;42.682;23.372;2022-10-15T08:02:33;6.38;;;3.55;;
43710;SDS011;29309;42.682;23.372;2022-10-15T08:04:59;5.40;;;3.67;;
43710;SDS011;29309;42.682;23.372;2022-10-15T08:07:25;6.85;;;4.20;;
43710;SDS011;29309;42.682;23.372;2022-10-15T08:09:50;6.97;;;4.72;;
43710;SDS011;29309;42.682;23.372;2022-10-15T08:12:16;5.70;;;3.97;;
43710;SDS011;29309;42.682;23.372;2022-10-15T08:14:41;7.88;;;3.90;;
43710;SDS011;29309;42.682;23.372;2022-10-15T08:17:07;14.07;;;4.20;;
43710;SDS011;29309;42.682;23.372;2022-10-15T08:19:32;7.53;;;3.92;;
43710;SDS011;29309;42.682;23.372;2022-10-15T08:21:58;9.57;;;3.85;;
43710;SDS011;29309;42.682;23.372;2022-10-15T08:24:23;9.77;;;4.35;;
43710;SDS011;29309;42.682;23.372;2022-10-15T08:26:49;4.05;;;3.17;;
43710;SDS011;29309;42.682;23.372;2022-10-15T08:29:14;5.85;;;4.03;;
43710;SDS011;29309;42.682;23.372;2022-10-15T08:31:40;9.32;;;4.47;;
43710;SDS011;29309;42.682;23.372;2022-10-15T08:34:06;6.25;;;3.88;;
43710;SDS011;29309;42.682;23.372;2022-10-15T08:36:32;7.53;;;4.03;;
43710;SDS011;29309;42.682;23.372;2022-10-15T08:38:58;5.53;;;3.53;;
43710;SDS011;29309;42.682;23.372;2022-10-15T08:44:00;7.22;;;4.32;;
43710;SDS011;29309;42.682;23.372;2022-10-15T08:46:34;6.57;;;4.47;;
43710;SDS011;29309;42.682;23.372;2022-10-15T08:49:04;5.40;;;3.45;;
43710;SDS011;29309;42.682;23.372;2022-10-15T08:51:39;6.85;;;3.97;;
43710;SDS011;29309;42.682;23.372;2022-10-15T08:54:11;5.28;;;3.10;;
43710;SDS011;29309;42.682;23.372;2022-10-15T08:56:42;6.10;;;3.75;;
43710;SDS011;29309;42.682;23.372;2022-10-15T08:59:27;6.93;;;3.15;;
43710;SDS011;29309;42.682;23.372;2022-10-15T09:01:59;8.90;;;4.30;;
43710;SDS011;29309;42.682;23.372;2022-10-15T09:04:52;6.78;;;3.95;;
43710;SDS011;29309;42.682;23.372;2022-10-15T09:10:00;7.07;;;3.60;;
43710;SDS011;29309;42.682;23.372;2022-10-15T09:15:15;5.35;;;3.88;;
43710;SDS011;29309;42.682;23.372;2022-10-15T09:17:43;7.97;;;4.25;;
43710;SDS011;29309;42.682;23.372;2022-10-15T09:20:16;4.63;;;2.88;;
43710;SDS011;29309;42.682;23.372;2022-10-15T09:22:46;4.60;;;2.97;;
43710;SDS011;29309;42.682;23.372;2022-10-15T09:25:16;6.20;;;3.53;;
43710;SDS011;29309;42.682;23.372;2022-10-15T09:27:44;10.82;;;3.10;;
43710;SDS011;29309;42.682;23.372;2022-10-15T09:44:48;5.85;;;2.97;;
43710;SDS011;29309;42.682;23.372;2022-10-15T09:47:16;5.28;;;3.53;;
43710;SDS011;29309;42.682;23.372;2022-10-15T09:49:50;4.10;;;2.70;;
43710;SDS011;29309;42.682;23.372;2022-10-15T09:52:20;8.77;;;3.55;;
43710;SDS011;29309;42.682;23.372;2022-10-15T09:54:50;7.72;;;3.33;;
43710;SDS011;29309;42.682;23.372;2022-10-15T09:57:39;10.40;;;6.00;;
43710;SDS011;29309;42.682;23.372;2022-10-15T10:00:09;6.47;;;3.78;;
43710;SDS011;29309;42.682;23.372;2022-10-15T10:02:37;4.88;;;3.58;;
43710;SDS011;29309;42.682;23.372;2022-10-15T10:05:36;8.75;;;3.92;;
43710;SDS011;29309;42.682;23.372;2022-10-15T10:10:33;4.35;;;2.78;;
43710;SDS011;29309;42.682;23.372;2022-10-15T10:13:01;4.85;;;3.30;;
43710;SDS011;29309;42.682;23.372;2022-10-15T10:15:33;4.82;;;3.17;;
43710;SDS011;29309;42.682;23.372;2022-10-15T10:18:05;15.90;;;3.33;;
43710;SDS011;29309;42.682;23.372;2022-10-15T10:20:50;5.35;;;2.90;;
43710;SDS011;29309;42.682;23.372;2022-10-15T10:23:31;3.40;;;2.45;;
43710;SDS011;29309;42.682;23.372;2022-10-15T10:26:00;4.22;;;2.95;;
43710;SDS011;29309;42.682;23.372;2022-10-15T10:28:32;6.30;;;2.90;;
43710;SDS011;29309;42.682;23.372;2022-10-15T10:31:04;6.07;;;2.88;;
43710;SDS011;29309;42.682;23.372;2022-10-15T10:33:33;4.70;;;2.90;;
43710;SDS011;29309;42.682;23.372;2022-10-15T10:35:59;3.22;;;2.58;;
43710;SDS011;29309;42.682;23.372;2022-10-15T10:38:30;6.65;;;3.63;;
43710;SDS011;29309;42.682;23.372;2022-10-15T10:40:58;6.95;;;3.60;;
43710;SDS011;29309;42.682;23.372;2022-10-15T10:43:30;6.10;;;3.08;;
43710;SDS011;29309;42.682;23.372;2022-10-15T10:45:58;5.88;;;2.92;;
43710;SDS011;29309;42.682;23.372;2022-10-15T10:49:02;4.43;;;2.25;;
43710;SDS011;29309;42.682;23.372;2022-10-15T10:51:22;9.30;;;2.95;;
43710;SDS011;29309;42.682;23.372;2022-10-15T10:54:01;4.38;;;2.50;;
43710;SDS011;29309;42.682;23.372;2022-10-15T10:56:30;7.72;;;3.05;;
43710;SDS011;29309;42.682;23.372;2022-10-15T10:59:13;5.10;;;2.15;;
43710;SDS011;29309;42.682;23.372;2022-10-15T11:01:41;3.38;;;2.60;;
43710;SDS011;29309;42.682;23.372;2022-10-15T11:04:22;4.22;;;2.40;;
43710;SDS011;29309;42.682;23.372;2022-10-15T11:07:05;3.95;;;2.47;;
43710;SDS011;29309;42.682;23.372;2022-10-15T11:26:01;4.47;;;2.45;;
43710;SDS011;29309;42.682;23.372;2022-10-15T11:37:43;2.55;;;1.88;;
43710;SDS011;29309;42.682;23.372;2022-10-15T11:45:30;3.85;;;2.30;;
43710;SDS011;29309;42.682;23.372;2022-10-15T11:48:20;3.13;;;2.15;;
43710;SDS011;29309;42.682;23.372;2022-10-15T11:50:56;4.20;;;1.75;;
43710;SDS011;29309;42.682;23.372;2022-10-15T11:53:55;2.97;;;2.17;;
43710;SDS011;29309;42.682;23.372;2022-10-15T11:56:48;2.42;;;1.77;;
43710;SDS011;29309;42.682;23.372;2022-10-15T12:01:48;5.28;;;2.40;;
43710;SDS011;29309;42.682;23.372;2022-10-15T12:06:53;4.90;;;3.15;;
43710;SDS011;29309;42.682;23.372;2022-10-15T12:09:25;7.20;;;2.85;;
43710;SDS011;29309;42.682;23.372;2022-10-15T12:14:32;4.00;;;1.90;;
43710;SDS011;29309;42.682;23.372;2022-10-15T12:17:09;8.63;;;3.28;;
43710;SDS011;29309;42.682;23.372;2022-10-15T12:20:04;4.82;;;3.05;;
43710;SDS011;29309;42.682;23.372;2022-10-15T12:22:40;4.88;;;2.45;;
43710;SDS011;29309;42.682;23.372;2022-10-15T12:28:03;4.18;;;2.72;;
43710;SDS011;29309;42.682;23.372;2022-10-15T12:30:33;8.57;;;3.80;;
43710;SDS011;29309;42.682;23.372;2022-10-15T12:33:01;14.32;;;4.85;;
43710;SDS011;29309;42.682;23.372;2022-10-15T12:35:30;8.57;;;4.75;;
43710;SDS011;29309;42.682;23.372;2022-10-15T12:38:07;5.15;;;2.85;;
43710;SDS011;29309;42.682;23.372;2022-10-15T12:40:36;3.90;;;2.20;;
43710;SDS011;29309;42.682;23.372;2022-10-15T12:43:11;5.07;;;1.90;;
43710;SDS011;29309;42.682;23.372;2022-10-15T12:45:53;3.95;;;2.20;;
43710;SDS011;29309;42.682;23.372;2022-10-15T12:48:28;3.08;;;1.80;;
43710;SDS011;29309;42.682;23.372;2022-10-15T12:53:48;3.60;;;1.77;;
43710;SDS011;29309;42.682;23.372;2022-10-15T12:58:44;3.40;;;1.58;;
43710;SDS011;29309;42.682;23.372;2022-10-15T13:11:28;3.70;;;2.35;;
43710;SDS011;29309;42.682;23.372;2022-10-15T13:14:00;6.00;;;2.42;;
43710;SDS011;29309;42.682;23.372;2022-10-15T13:16:44;7.55;;;2.45;;
43710;SDS011;29309;42.682;23.372;2022-10-15T13:19:18;8.95;;;2.33;;
43710;SDS011;29309;42.682;23.372;2022-10-15T13:21:50;3.45;;;2.17;;
43710;SDS011;29309;42.682;23.372;2022-10-15T13:24:19;3.30;;;2.55;;
43710;SDS011;29309;42.682;23.372;2022-10-15T13:26:46;7.15;;;2.53;;
43710;SDS011;29309;42.682;23.372;2022-10-15T13:29:23;3.65;;;2.60;;
43710;SDS011;29309;42.682;23.372;2022-10-15T13:31:50;3.28;;;1.98;;
43710;SDS011;29309;42.682;23.372;2022-10-15T13:34:24;3.90;;;2.10;;
43710;SDS011;29309;42.682;23.372;2022-10-15T13:36:50;3.40;;;2.33;;
43710;SDS011;29309;42.682;23.372;2022-10-15T13:41:46;6.45;;;2.13;;
43710;SDS011;29309;42.682;23.372;2022-10-15T13:44:21;3.35;;;1.80;;
43710;SDS011;29309;42.682;23.372;2022-10-15T13:46:48;3.95;;;2.10;;
43710;SDS011;29309;42.682;23.372;2022-10-15T13:49:14;7.25;;;2.85;;
43710;SDS011;29309;42.682;23.372;2022-10-15T13:51:46;3.75;;;2.67;;
43710;SDS011;29309;42.682;23.372;2022-10-15T13:54:15;4.63;;;2.15;;
43710;SDS011;29309;42.682;23.372;2022-10-15T13:56:54;6.47;;;2.20;;
43710;SDS011;29309;42.682;23.372;2022-10-15T13:59:23;12.02;;;2.00;;
43710;SDS011;29309;42.682;23.372;2022-10-15T14:01:52;5.15;;;2.38;;
43710;SDS011;29309;42.682;23.372;2022-10-15T14:04:27;5.72;;;2.45;;
43710;SDS011;29309;42.682;23.372;2022-10-15T14:07:00;4.03;;;2.00;;
43710;SDS011;29309;42.682;23.372;2022-10-15T14:11:57;6.88;;;1.95;;
43710;SDS011;29309;42.682;23.372;2022-10-15T14:17:26;4.75;;;2.60;;
43710;SDS011;29309;42.682;23.372;2022-10-15T14:19:58;9.02;;;2.70;;
43710;SDS011;29309;42.682;23.372;2022-10-15T14:22:28;4.53;;;1.92;;
43710;SDS011;29309;42.682;23.372;2022-10-15T14:24:54;3.20;;;2.00;;
43710;SDS011;29309;42.682;23.372;2022-10-15T14:29:52;5.95;;;2.30;;
43710;SDS011;29309;42.682;23.372;2022-10-15T14:33:04;3.95;;;2.20;;
43710;SDS011;29309;42.682;23.372;2022-10-15T14:35:35;3.30;;;1.58;;
43710;SDS011;29309;42.682;23.372;2022-10-15T14:38:02;4.43;;;1.27;;
43710;SDS011;29309;42.682;23.372;2022-10-15T14:40:34;4.28;;;1.67;;
43710;SDS011;29309;42.682;23.372;2022-10-15T14:43:12;9.45;;;1.60;;
43710;SDS011;29309;42.682;23.372;2022-10-15T14:45:41;6.35;;;2.03;;
43710;SDS011;29309;42.682;23.372;2022-10-15T14:48:37;2.13;;;1.50;;
43710;SDS011;29309;42.682;23.372;2022-10-15T14:51:07;6.18;;;2.30;;
43710;SDS011;29309;42.682;23.372;2022-10-15T14:53:42;3.17;;;1.75;;
43710;SDS011;29309;42.682;23.372;2022-10-15T14:56:14;2.33;;;1.50;;
43710;SDS011;29309;42.682;23.372;2022-10-15T14:58:47;2.72;;;1.70;;
43710;SDS011;29309;42.682;23.372;2022-10-15T15:01:17;3.55;;;1.90;;
43710;SDS011;29309;42.682;23.372;2022-10-15T15:03:54;2.72;;;1.60;;
43710;SDS011;29309;42.682;23.372;2022-10-15T15:06:29;5.00;;;1.90;;
43710;SDS011;29309;42.682;23.372;2022-10-15T15:08:56;2.95;;;1.65;;
43710;SDS011;29309;42.682;23.372;2022-10-15T15:11:22;3.00;;;1.58;;
43710;SDS011;29309;42.682;23.372;2022-10-15T15:13:52;4.20;;;1.77;;
43710;SDS011;29309;42.682;23.372;2022-10-15T15:16:18;2.83;;;2.00;;
43710;SDS011;29309;42.682;23.372;2022-10-15T15:18:44;2.08;;;1.70;;
43710;SDS011;29309;42.682;23.372;2022-10-15T15:21:16;4.35;;;2.60;;
43710;SDS011;29309;42.682;23.372;2022-10-15T15:23:46;8.07;;;2.90;;
43710;SDS011;29309;42.682;23.372;2022-10-15T15:26:13;7.80;;;4.10;;
43710;SDS011;29309;42.682;23.372;2022-10-15T15:28:38;6.28;;;3.22;;
43710;SDS011;29309;42.682;23.372;2022-10-15T15:31:11;5.95;;;2.85;;
43710;SDS011;29309;42.682;23.372;2022-10-15T15:33:40;6.32;;;2.75;;
43710;SDS011;29309;42.682;23.372;2022-10-15T15:36:06;7.20;;;4.15;;
43710;SDS011;29309;42.682;23.372;2022-10-15T15:38:37;8.30;;;3.90;;
43710;SDS011;29309;42.682;23.372;2022-10-15T15:41:03;6.88;;;4.28;;
43710;SDS011;29309;42.682;23.372;2022-10-15T15:43:39;14.68;;;5.90;;
43710;SDS011;29309;42.682;23.372;2022-10-15T15:46:06;15.85;;;4.93;;
43710;SDS011;29309;42.682;23.372;2022-10-15T15:48:31;12.60;;;5.03;;
43710;SDS011;29309;42.682;23.372;2022-10-15T15:50:57;13.60;;;5.13;;
43710;SDS011;29309;42.682;23.372;2022-10-15T15:53:26;11.48;;;4.80;;
43710;SDS011;29309;42.682;23.372;2022-10-15T15:55:51;12.02;;;6.28;;
43710;SDS011;29309;42.682;23.372;2022-10-15T15:58:17;12.48;;;6.00;;
43710;SDS011;29309;42.682;23.372;2022-10-15T16:00:42;10.25;;;4.13;;
43710;SDS011;29309;42.682;23.372;2022-10-15T16:03:10;10.93;;;4.78;;
43710;SDS011;29309;42.682;23.372;2022-10-15T16:05:37;8.75;;;4.47;;
43710;SDS011;29309;42.682;23.372;2022-10-15T16:08:04;9.82;;;4.78;;
43710;SDS011;29309;42.682;23.372;2022-10-15T16:10:30;7.20;;;3.85;;
43710;SDS011;29309;42.682;23.372;2022-10-15T16:12:55;7.68;;;4.38;;
43710;SDS011;29309;42.682;23.372;2022-10-15T16:15:21;7.72;;;4.72;;
43710;SDS011;29309;42.682;23.372;2022-10-15T16:17:46;12.45;;;5.78;;
43710;SDS011;29309;42.682;23.372;2022-10-15T16:20:12;14.55;;;5.05;;
43710;SDS011;29309;42.682;23.372;2022-10-15T16:22:38;10.45;;;4.40;;
43710;SDS011;29309;42.682;23.372;2022-10-15T16:25:03;9.55;;;5.05;;
43710;SDS011;29309;42.682;23.372;2022-10-15T16:27:29;11.57;;;4.32;;
43710;SDS011;29309;42.682;23.372;2022-10-15T16:29:56;9.30;;;4.00;;
43710;SDS011;29309;42.682;23.372;2022-10-15T16:32:23;9.98;;;3.78;;
43710;SDS011;29309;42.682;23.372;2022-10-15T16:34:49;9.88;;;4.30;;
43710;SDS011;29309;42.682;23.372;2022-10-15T16:37:15;8.70;;;4.72;;
43710;SDS011;29309;42.682;23.372;2022-10-15T16:39:40;9.05;;;4.40;;
43710;SDS011;29309;42.682;23.372;2022-10-15T16:42:06;10.07;;;4.68;;
43710;SDS011;29309;42.682;23.372;2022-10-15T16:44:32;14.07;;;5.43;;
43710;SDS011;29309;42.682;23.372;2022-10-15T16:46:57;10.20;;;4.75;;
43710;SDS011;29309;42.682;23.372;2022-10-15T16:49:23;13.50;;;5.05;;
43710;SDS011;29309;42.682;23.372;2022-10-15T16:51:48;8.15;;;5.03;;
43710;SDS011;29309;42.682;23.372;2022-10-15T16:54:14;17.70;;;6.10;;